sensor_id;sensor_type;location;lat;lon;timestamp;P1;durP1;ratioP1;P2;durP2;ratioP2
74223;SDS011;62585;49.706;18.216;2023-12-20T00:01:03;9.40;;;4.30;;
74223;SDS011;62585;49.706;18.216;2023-12-20T00:03:40;4.35;;;2.45;;
74223;SDS011;62585;49.706;18.216;2023-12-20T00:06:06;4.55;;;3.35;;
74223;SDS011;62585;49.706;18.216;2023-12-20T00:08:32;5.68;;;4.00;;
74223;SDS011;62585;49.706;18.216;2023-12-20T00:10:59;6.30;;;3.55;;
74223;SDS011;62585;49.706;18.216;2023-12-20T00:13:24;6.13;;;3.65;;
74223;SDS011;62585;49.706;18.216;2023-12-20T00:15:50;7.55;;;3.85;;
74223;SDS011;62585;49.706;18.216;2023-12-20T00:18:16;4.55;;;2.90;;
74223;SDS011;62585;49.706;18.216;2023-12-20T00:20:42;8.63;;;4.80;;
74223;SDS011;62585;49.706;18.216;2023-12-20T00:23:08;5.57;;;2.92;;
74223;SDS011;62585;49.706;18.216;2023-12-20T00:25:34;6.00;;;4.05;;
74223;SDS011;62585;49.706;18.216;2023-12-20T00:28:00;4.65;;;2.42;;
74223;SDS011;62585;49.706;18.216;2023-12-20T00:30:28;4.18;;;3.30;;
74223;SDS011;62585;49.706;18.216;2023-12-20T00:32:53;6.07;;;3.75;;
74223;SDS011;62585;49.706;18.216;2023-12-20T00:35:20;5.15;;;3.58;;
74223;SDS011;62585;49.706;18.216;2023-12-20T00:37:46;6.57;;;3.30;;
74223;SDS011;62585;49.706;18.216;2023-12-20T00:40:12;6.43;;;3.75;;
74223;SDS011;62585;49.706;18.216;2023-12-20T00:42:37;8.07;;;3.90;;
74223;SDS011;62585;49.706;18.216;2023-12-20T00:45:04;7.25;;;3.58;;
74223;SDS011;62585;49.706;18.216;2023-12-20T00:47:33;6.45;;;4.57;;
74223;SDS011;62585;49.706;18.216;2023-12-20T00:49:59;6.30;;;3.60;;
74223;SDS011;62585;49.706;18.216;2023-12-20T00:52:24;5.47;;;3.67;;
74223;SDS011;62585;49.706;18.216;2023-12-20T00:54:51;6.35;;;3.72;;
74223;SDS011;62585;49.706;18.216;2023-12-20T00:57:17;9.25;;;4.15;;
74223;SDS011;62585;49.706;18.216;2023-12-20T00:59:43;8.02;;;3.08;;
74223;SDS011;62585;49.706;18.216;2023-12-20T01:02:09;8.55;;;3.63;;
74223;SDS011;62585;49.706;18.216;2023-12-20T01:04:35;4.82;;;2.90;;
74223;SDS011;62585;49.706;18.216;2023-12-20T01:07:01;6.00;;;2.85;;
74223;SDS011;62585;49.706;18.216;2023-12-20T01:09:27;6.88;;;3.30;;
74223;SDS011;62585;49.706;18.216;2023-12-20T01:11:53;8.02;;;4.07;;
74223;SDS011;62585;49.706;18.216;2023-12-20T01:14:19;5.95;;;3.95;;
74223;SDS011;62585;49.706;18.216;2023-12-20T01:16:45;4.38;;;2.30;;
74223;SDS011;62585;49.706;18.216;2023-12-20T01:19:12;6.47;;;3.13;;
74223;SDS011;62585;49.706;18.216;2023-12-20T01:21:39;8.27;;;3.85;;
74223;SDS011;62585;49.706;18.216;2023-12-20T01:24:05;4.63;;;3.30;;
74223;SDS011;62585;49.706;18.216;2023-12-20T01:26:31;6.00;;;3.38;;
74223;SDS011;62585;49.706;18.216;2023-12-20T01:28:57;8.35;;;4.38;;
74223;SDS011;62585;49.706;18.216;2023-12-20T01:31:23;5.32;;;2.95;;
74223;SDS011;62585;49.706;18.216;2023-12-20T01:33:49;10.00;;;3.80;;
74223;SDS011;62585;49.706;18.216;2023-12-20T01:36:14;5.22;;;3.67;;
74223;SDS011;62585;49.706;18.216;2023-12-20T01:38:41;8.13;;;3.60;;
74223;SDS011;62585;49.706;18.216;2023-12-20T01:41:06;6.15;;;3.60;;
74223;SDS011;62585;49.706;18.216;2023-12-20T01:43:33;5.57;;;3.33;;
74223;SDS011;62585;49.706;18.216;2023-12-20T01:45:58;6.47;;;3.55;;
74223;SDS011;62585;49.706;18.216;2023-12-20T01:48:25;5.53;;;3.28;;
74223;SDS011;62585;49.706;18.216;2023-12-20T01:50:53;6.85;;;3.42;;
74223;SDS011;62585;49.706;18.216;2023-12-20T01:53:20;6.47;;;3.08;;
74223;SDS011;62585;49.706;18.216;2023-12-20T01:55:49;5.15;;;3.38;;
74223;SDS011;62585;49.706;18.216;2023-12-20T01:58:17;5.63;;;3.03;;
74223;SDS011;62585;49.706;18.216;2023-12-20T02:00:44;4.78;;;2.80;;
74223;SDS011;62585;49.706;18.216;2023-12-20T02:03:10;4.47;;;2.80;;
74223;SDS011;62585;49.706;18.216;2023-12-20T02:05:37;7.22;;;3.88;;
74223;SDS011;62585;49.706;18.216;2023-12-20T02:08:03;7.13;;;3.33;;
74223;SDS011;62585;49.706;18.216;2023-12-20T02:13:06;5.53;;;3.45;;
74223;SDS011;62585;49.706;18.216;2023-12-20T02:15:32;5.60;;;4.25;;
74223;SDS011;62585;49.706;18.216;2023-12-20T02:17:58;4.43;;;3.08;;
74223;SDS011;62585;49.706;18.216;2023-12-20T02:20:24;4.97;;;2.72;;
74223;SDS011;62585;49.706;18.216;2023-12-20T02:22:50;5.18;;;2.25;;
74223;SDS011;62585;49.706;18.216;2023-12-20T02:25:16;6.78;;;3.20;;
74223;SDS011;62585;49.706;18.216;2023-12-20T02:27:42;7.63;;;3.97;;
74223;SDS011;62585;49.706;18.216;2023-12-20T02:30:08;4.00;;;2.70;;
74223;SDS011;62585;49.706;18.216;2023-12-20T02:32:34;5.13;;;3.20;;
74223;SDS011;62585;49.706;18.216;2023-12-20T02:35:00;7.13;;;3.08;;
74223;SDS011;62585;49.706;18.216;2023-12-20T02:37:26;4.22;;;2.70;;
74223;SDS011;62585;49.706;18.216;2023-12-20T02:39:52;8.05;;;4.18;;
74223;SDS011;62585;49.706;18.216;2023-12-20T02:42:18;8.02;;;3.38;;
74223;SDS011;62585;49.706;18.216;2023-12-20T02:44:43;6.88;;;3.53;;
74223;SDS011;62585;49.706;18.216;2023-12-20T02:47:09;6.47;;;3.45;;
74223;SDS011;62585;49.706;18.216;2023-12-20T02:49:35;6.38;;;3.80;;
74223;SDS011;62585;49.706;18.216;2023-12-20T02:52:01;8.68;;;3.65;;
74223;SDS011;62585;49.706;18.216;2023-12-20T02:54:27;6.53;;;3.25;;
74223;SDS011;62585;49.706;18.216;2023-12-20T02:56:53;7.35;;;4.32;;
74223;SDS011;62585;49.706;18.216;2023-12-20T02:59:19;6.22;;;3.13;;
74223;SDS011;62585;49.706;18.216;2023-12-20T03:01:45;5.97;;;4.30;;
74223;SDS011;62585;49.706;18.216;2023-12-20T03:04:11;3.70;;;2.33;;
74223;SDS011;62585;49.706;18.216;2023-12-20T03:06:38;8.38;;;3.85;;
74223;SDS011;62585;49.706;18.216;2023-12-20T03:09:04;4.55;;;2.92;;
74223;SDS011;62585;49.706;18.216;2023-12-20T03:11:30;5.35;;;3.50;;
74223;SDS011;62585;49.706;18.216;2023-12-20T03:13:56;4.78;;;3.00;;
74223;SDS011;62585;49.706;18.216;2023-12-20T03:16:23;5.38;;;3.28;;
74223;SDS011;62585;49.706;18.216;2023-12-20T03:18:49;5.82;;;3.53;;
74223;SDS011;62585;49.706;18.216;2023-12-20T03:21:15;4.97;;;3.78;;
74223;SDS011;62585;49.706;18.216;2023-12-20T03:23:41;5.10;;;2.65;;
74223;SDS011;62585;49.706;18.216;2023-12-20T03:26:07;5.72;;;2.75;;
74223;SDS011;62585;49.706;18.216;2023-12-20T03:28:34;4.68;;;3.47;;
74223;SDS011;62585;49.706;18.216;2023-12-20T03:31:00;6.32;;;4.03;;
74223;SDS011;62585;49.706;18.216;2023-12-20T03:35:53;6.72;;;2.80;;
74223;SDS011;62585;49.706;18.216;2023-12-20T03:38:19;5.85;;;3.13;;
74223;SDS011;62585;49.706;18.216;2023-12-20T03:40:45;6.20;;;2.70;;
74223;SDS011;62585;49.706;18.216;2023-12-20T03:43:10;5.90;;;3.20;;
74223;SDS011;62585;49.706;18.216;2023-12-20T03:45:36;5.88;;;2.83;;
74223;SDS011;62585;49.706;18.216;2023-12-20T03:48:02;5.78;;;2.72;;
74223;SDS011;62585;49.706;18.216;2023-12-20T03:50:28;6.68;;;3.28;;
74223;SDS011;62585;49.706;18.216;2023-12-20T03:52:54;5.50;;;2.72;;
74223;SDS011;62585;49.706;18.216;2023-12-20T03:55:20;8.70;;;3.38;;
74223;SDS011;62585;49.706;18.216;2023-12-20T03:57:46;5.13;;;3.75;;
74223;SDS011;62585;49.706;18.216;2023-12-20T04:00:12;6.75;;;4.43;;
74223;SDS011;62585;49.706;18.216;2023-12-20T04:02:38;8.30;;;4.32;;
74223;SDS011;62585;49.706;18.216;2023-12-20T04:05:06;9.27;;;5.30;;
74223;SDS011;62585;49.706;18.216;2023-12-20T04:07:32;7.47;;;4.90;;
74223;SDS011;62585;49.706;18.216;2023-12-20T04:09:58;7.20;;;4.53;;
74223;SDS011;62585;49.706;18.216;2023-12-20T04:12:24;13.10;;;6.20;;
74223;SDS011;62585;49.706;18.216;2023-12-20T04:14:50;7.07;;;4.05;;
74223;SDS011;62585;49.706;18.216;2023-12-20T04:17:16;9.60;;;5.07;;
74223;SDS011;62585;49.706;18.216;2023-12-20T04:19:42;6.85;;;4.05;;
74223;SDS011;62585;49.706;18.216;2023-12-20T04:22:08;8.55;;;4.95;;
74223;SDS011;62585;49.706;18.216;2023-12-20T04:24:34;8.70;;;4.40;;
74223;SDS011;62585;49.706;18.216;2023-12-20T04:27:01;7.38;;;3.80;;
74223;SDS011;62585;49.706;18.216;2023-12-20T04:29:27;6.60;;;4.25;;
74223;SDS011;62585;49.706;18.216;2023-12-20T04:31:53;5.82;;;3.35;;
74223;SDS011;62585;49.706;18.216;2023-12-20T04:34:19;7.53;;;4.00;;
74223;SDS011;62585;49.706;18.216;2023-12-20T04:36:46;6.72;;;4.45;;
74223;SDS011;62585;49.706;18.216;2023-12-20T04:39:12;7.20;;;4.05;;
74223;SDS011;62585;49.706;18.216;2023-12-20T04:41:39;7.45;;;4.32;;
74223;SDS011;62585;49.706;18.216;2023-12-20T04:44:05;6.55;;;2.85;;
74223;SDS011;62585;49.706;18.216;2023-12-20T04:46:31;6.88;;;4.47;;
74223;SDS011;62585;49.706;18.216;2023-12-20T04:48:57;5.07;;;3.10;;
74223;SDS011;62585;49.706;18.216;2023-12-20T04:51:23;6.32;;;3.33;;
74223;SDS011;62585;49.706;18.216;2023-12-20T04:53:50;6.05;;;3.42;;
74223;SDS011;62585;49.706;18.216;2023-12-20T04:56:15;5.57;;;2.88;;
74223;SDS011;62585;49.706;18.216;2023-12-20T04:58:42;5.85;;;3.55;;
74223;SDS011;62585;49.706;18.216;2023-12-20T05:01:08;7.18;;;4.13;;
74223;SDS011;62585;49.706;18.216;2023-12-20T05:03:35;3.60;;;2.47;;
74223;SDS011;62585;49.706;18.216;2023-12-20T05:06:01;6.95;;;3.97;;
74223;SDS011;62585;49.706;18.216;2023-12-20T05:08:27;5.75;;;3.30;;
74223;SDS011;62585;49.706;18.216;2023-12-20T05:10:54;6.65;;;4.15;;
74223;SDS011;62585;49.706;18.216;2023-12-20T05:13:20;6.57;;;3.67;;
74223;SDS011;62585;49.706;18.216;2023-12-20T05:15:46;4.80;;;3.55;;
74223;SDS011;62585;49.706;18.216;2023-12-20T05:18:12;4.40;;;2.20;;
74223;SDS011;62585;49.706;18.216;2023-12-20T05:20:38;6.05;;;3.08;;
74223;SDS011;62585;49.706;18.216;2023-12-20T05:23:05;5.28;;;3.53;;
74223;SDS011;62585;49.706;18.216;2023-12-20T05:25:30;6.72;;;2.92;;
74223;SDS011;62585;49.706;18.216;2023-12-20T05:27:57;5.20;;;2.97;;
74223;SDS011;62585;49.706;18.216;2023-12-20T05:30:22;7.32;;;3.67;;
74223;SDS011;62585;49.706;18.216;2023-12-20T05:32:48;7.25;;;3.88;;
74223;SDS011;62585;49.706;18.216;2023-12-20T05:35:14;8.65;;;4.40;;
74223;SDS011;62585;49.706;18.216;2023-12-20T05:37:41;8.73;;;5.18;;
74223;SDS011;62585;49.706;18.216;2023-12-20T05:40:07;9.73;;;5.95;;
74223;SDS011;62585;49.706;18.216;2023-12-20T05:42:36;8.95;;;5.70;;
74223;SDS011;62585;49.706;18.216;2023-12-20T05:45:05;13.02;;;7.60;;
74223;SDS011;62585;49.706;18.216;2023-12-20T05:47:32;11.20;;;7.07;;
74223;SDS011;62585;49.706;18.216;2023-12-20T05:49:57;11.30;;;7.40;;
74223;SDS011;62585;49.706;18.216;2023-12-20T05:52:26;14.40;;;7.85;;
74223;SDS011;62585;49.706;18.216;2023-12-20T05:54:52;15.98;;;8.45;;
74223;SDS011;62585;49.706;18.216;2023-12-20T05:57:18;13.75;;;7.35;;
74223;SDS011;62585;49.706;18.216;2023-12-20T05:59:43;14.00;;;6.60;;
74223;SDS011;62585;49.706;18.216;2023-12-20T06:02:09;14.70;;;6.82;;
74223;SDS011;62585;49.706;18.216;2023-12-20T06:04:35;13.68;;;7.80;;
74223;SDS011;62585;49.706;18.216;2023-12-20T06:07:02;13.02;;;7.30;;
74223;SDS011;62585;49.706;18.216;2023-12-20T06:09:28;12.65;;;8.65;;
74223;SDS011;62585;49.706;18.216;2023-12-20T06:11:54;16.55;;;7.07;;
74223;SDS011;62585;49.706;18.216;2023-12-20T06:14:20;13.85;;;7.45;;
74223;SDS011;62585;49.706;18.216;2023-12-20T06:16:46;13.02;;;7.75;;
74223;SDS011;62585;49.706;18.216;2023-12-20T06:19:12;10.52;;;6.68;;
74223;SDS011;62585;49.706;18.216;2023-12-20T06:21:38;12.70;;;7.40;;
74223;SDS011;62585;49.706;18.216;2023-12-20T06:24:03;11.18;;;6.47;;
74223;SDS011;62585;49.706;18.216;2023-12-20T06:26:30;12.85;;;7.40;;
74223;SDS011;62585;49.706;18.216;2023-12-20T06:28:55;8.73;;;6.50;;
74223;SDS011;62585;49.706;18.216;2023-12-20T06:31:21;12.00;;;8.55;;
74223;SDS011;62585;49.706;18.216;2023-12-20T06:33:47;11.68;;;7.10;;
74223;SDS011;62585;49.706;18.216;2023-12-20T06:36:15;16.75;;;8.80;;
74223;SDS011;62585;49.706;18.216;2023-12-20T06:38:41;12.07;;;6.78;;
74223;SDS011;62585;49.706;18.216;2023-12-20T06:41:07;11.10;;;6.28;;
74223;SDS011;62585;49.706;18.216;2023-12-20T06:43:33;10.05;;;6.35;;
74223;SDS011;62585;49.706;18.216;2023-12-20T06:46:02;8.68;;;5.82;;
74223;SDS011;62585;49.706;18.216;2023-12-20T06:48:28;11.15;;;6.55;;
74223;SDS011;62585;49.706;18.216;2023-12-20T06:50:54;11.85;;;6.13;;
74223;SDS011;62585;49.706;18.216;2023-12-20T06:53:20;10.80;;;6.22;;
74223;SDS011;62585;49.706;18.216;2023-12-20T06:55:46;15.27;;;7.40;;
74223;SDS011;62585;49.706;18.216;2023-12-20T06:58:12;8.35;;;5.82;;
74223;SDS011;62585;49.706;18.216;2023-12-20T07:00:38;10.18;;;6.30;;
74223;SDS011;62585;49.706;18.216;2023-12-20T07:03:03;15.70;;;8.35;;
74223;SDS011;62585;49.706;18.216;2023-12-20T07:05:29;14.52;;;7.53;;
74223;SDS011;62585;49.706;18.216;2023-12-20T07:07:55;14.50;;;8.07;;
74223;SDS011;62585;49.706;18.216;2023-12-20T07:10:21;14.27;;;9.75;;
74223;SDS011;62585;49.706;18.216;2023-12-20T07:12:47;15.90;;;9.07;;
74223;SDS011;62585;49.706;18.216;2023-12-20T07:15:14;15.32;;;7.57;;
74223;SDS011;62585;49.706;18.216;2023-12-20T07:17:40;16.90;;;8.07;;
74223;SDS011;62585;49.706;18.216;2023-12-20T07:20:06;15.25;;;8.73;;
74223;SDS011;62585;49.706;18.216;2023-12-20T07:22:35;12.32;;;8.02;;
74223;SDS011;62585;49.706;18.216;2023-12-20T07:25:01;15.32;;;7.25;;
74223;SDS011;62585;49.706;18.216;2023-12-20T07:27:26;12.70;;;6.50;;
74223;SDS011;62585;49.706;18.216;2023-12-20T07:29:52;14.10;;;8.00;;
74223;SDS011;62585;49.706;18.216;2023-12-20T07:32:18;12.73;;;6.63;;
74223;SDS011;62585;49.706;18.216;2023-12-20T07:34:45;21.55;;;12.80;;
74223;SDS011;62585;49.706;18.216;2023-12-20T07:37:10;20.27;;;13.45;;
74223;SDS011;62585;49.706;18.216;2023-12-20T07:39:37;22.60;;;10.77;;
74223;SDS011;62585;49.706;18.216;2023-12-20T07:42:05;9.48;;;6.18;;
74223;SDS011;62585;49.706;18.216;2023-12-20T07:44:31;11.50;;;6.35;;
74223;SDS011;62585;49.706;18.216;2023-12-20T07:46:57;10.85;;;5.82;;
74223;SDS011;62585;49.706;18.216;2023-12-20T07:49:23;10.75;;;5.65;;
74223;SDS011;62585;49.706;18.216;2023-12-20T07:51:49;14.27;;;7.07;;
74223;SDS011;62585;49.706;18.216;2023-12-20T07:54:15;13.43;;;6.88;;
74223;SDS011;62585;49.706;18.216;2023-12-20T07:56:41;8.55;;;5.03;;
74223;SDS011;62585;49.706;18.216;2023-12-20T07:59:07;7.38;;;4.53;;
74223;SDS011;62585;49.706;18.216;2023-12-20T08:01:33;10.32;;;5.68;;
74223;SDS011;62585;49.706;18.216;2023-12-20T08:03:59;9.80;;;5.35;;
74223;SDS011;62585;49.706;18.216;2023-12-20T08:06:25;7.13;;;5.00;;
74223;SDS011;62585;49.706;18.216;2023-12-20T08:08:51;11.50;;;5.57;;
74223;SDS011;62585;49.706;18.216;2023-12-20T08:11:17;5.93;;;3.33;;
74223;SDS011;62585;49.706;18.216;2023-12-20T08:13:43;10.52;;;5.72;;
74223;SDS011;62585;49.706;18.216;2023-12-20T08:16:08;11.13;;;6.80;;
74223;SDS011;62585;49.706;18.216;2023-12-20T08:18:34;9.73;;;5.47;;
74223;SDS011;62585;49.706;18.216;2023-12-20T08:21:00;5.07;;;2.85;;
74223;SDS011;62585;49.706;18.216;2023-12-20T08:23:27;5.82;;;2.92;;
74223;SDS011;62585;49.706;18.216;2023-12-20T08:25:53;11.40;;;6.25;;
74223;SDS011;62585;49.706;18.216;2023-12-20T08:28:19;10.95;;;5.28;;
74223;SDS011;62585;49.706;18.216;2023-12-20T08:30:45;9.88;;;6.15;;
74223;SDS011;62585;49.706;18.216;2023-12-20T08:33:11;8.88;;;4.70;;
74223;SDS011;62585;49.706;18.216;2023-12-20T08:35:40;11.93;;;6.07;;
74223;SDS011;62585;49.706;18.216;2023-12-20T08:38:07;10.63;;;6.18;;
74223;SDS011;62585;49.706;18.216;2023-12-20T08:40:32;8.50;;;5.13;;
74223;SDS011;62585;49.706;18.216;2023-12-20T08:42:58;8.48;;;5.75;;
74223;SDS011;62585;49.706;18.216;2023-12-20T08:45:24;9.00;;;5.65;;
74223;SDS011;62585;49.706;18.216;2023-12-20T08:47:50;6.00;;;3.30;;
74223;SDS011;62585;49.706;18.216;2023-12-20T08:50:16;9.18;;;5.07;;
74223;SDS011;62585;49.706;18.216;2023-12-20T08:52:42;7.93;;;4.72;;
74223;SDS011;62585;49.706;18.216;2023-12-20T08:55:08;10.40;;;5.95;;
74223;SDS011;62585;49.706;18.216;2023-12-20T08:57:36;5.55;;;3.80;;
74223;SDS011;62585;49.706;18.216;2023-12-20T09:00:02;7.82;;;5.82;;
74223;SDS011;62585;49.706;18.216;2023-12-20T09:02:29;7.13;;;3.67;;
74223;SDS011;62585;49.706;18.216;2023-12-20T09:04:54;9.82;;;5.45;;
74223;SDS011;62585;49.706;18.216;2023-12-20T09:07:24;10.02;;;5.78;;
74223;SDS011;62585;49.706;18.216;2023-12-20T09:09:51;7.20;;;4.57;;
74223;SDS011;62585;49.706;18.216;2023-12-20T09:12:20;12.13;;;6.10;;
74223;SDS011;62585;49.706;18.216;2023-12-20T09:14:47;12.02;;;6.40;;
74223;SDS011;62585;49.706;18.216;2023-12-20T09:17:13;10.43;;;5.53;;
74223;SDS011;62585;49.706;18.216;2023-12-20T09:19:40;12.18;;;6.13;;
74223;SDS011;62585;49.706;18.216;2023-12-20T09:22:06;9.23;;;6.25;;
74223;SDS011;62585;49.706;18.216;2023-12-20T09:24:32;9.90;;;5.43;;
74223;SDS011;62585;49.706;18.216;2023-12-20T09:26:59;11.68;;;6.47;;
74223;SDS011;62585;49.706;18.216;2023-12-20T09:29:24;11.40;;;6.30;;
74223;SDS011;62585;49.706;18.216;2023-12-20T09:31:50;8.15;;;4.13;;
74223;SDS011;62585;49.706;18.216;2023-12-20T09:34:16;10.63;;;6.38;;
74223;SDS011;62585;49.706;18.216;2023-12-20T09:36:45;9.23;;;5.38;;
74223;SDS011;62585;49.706;18.216;2023-12-20T09:39:18;8.70;;;5.13;;
74223;SDS011;62585;49.706;18.216;2023-12-20T09:41:49;11.05;;;7.05;;
74223;SDS011;62585;49.706;18.216;2023-12-20T09:44:25;5.57;;;4.22;;
74223;SDS011;62585;49.706;18.216;2023-12-20T09:46:51;13.80;;;7.25;;
74223;SDS011;62585;49.706;18.216;2023-12-20T09:49:19;13.63;;;6.03;;
74223;SDS011;62585;49.706;18.216;2023-12-20T09:51:47;12.00;;;5.50;;
74223;SDS011;62585;49.706;18.216;2023-12-20T09:54:13;9.63;;;5.60;;
74223;SDS011;62585;49.706;18.216;2023-12-20T09:56:41;13.13;;;6.20;;
74223;SDS011;62585;49.706;18.216;2023-12-20T09:59:06;9.10;;;5.72;;
74223;SDS011;62585;49.706;18.216;2023-12-20T10:01:34;12.30;;;6.80;;
74223;SDS011;62585;49.706;18.216;2023-12-20T10:04:00;11.93;;;5.30;;
74223;SDS011;62585;49.706;18.216;2023-12-20T10:06:32;10.00;;;5.47;;
74223;SDS011;62585;49.706;18.216;2023-12-20T10:08:58;9.02;;;4.60;;
74223;SDS011;62585;49.706;18.216;2023-12-20T10:11:24;9.60;;;6.05;;
74223;SDS011;62585;49.706;18.216;2023-12-20T10:13:50;10.93;;;6.13;;
74223;SDS011;62585;49.706;18.216;2023-12-20T10:16:16;8.50;;;5.38;;
74223;SDS011;62585;49.706;18.216;2023-12-20T10:18:42;9.85;;;5.63;;
74223;SDS011;62585;49.706;18.216;2023-12-20T10:21:08;7.38;;;5.25;;
74223;SDS011;62585;49.706;18.216;2023-12-20T10:23:35;11.07;;;6.95;;
74223;SDS011;62585;49.706;18.216;2023-12-20T10:26:02;9.85;;;6.13;;
74223;SDS011;62585;49.706;18.216;2023-12-20T10:28:28;13.35;;;6.35;;
74223;SDS011;62585;49.706;18.216;2023-12-20T10:30:59;11.20;;;7.13;;
74223;SDS011;62585;49.706;18.216;2023-12-20T10:33:26;7.22;;;3.72;;
74223;SDS011;62585;49.706;18.216;2023-12-20T10:35:57;7.90;;;4.97;;
74223;SDS011;62585;49.706;18.216;2023-12-20T10:38:23;12.65;;;7.18;;
74223;SDS011;62585;49.706;18.216;2023-12-20T10:40:49;13.25;;;6.20;;
74223;SDS011;62585;49.706;18.216;2023-12-20T10:43:22;13.45;;;6.38;;
74223;SDS011;62585;49.706;18.216;2023-12-20T10:45:51;16.33;;;6.57;;
74223;SDS011;62585;49.706;18.216;2023-12-20T10:48:17;8.50;;;5.20;;
74223;SDS011;62585;49.706;18.216;2023-12-20T10:50:44;9.38;;;4.32;;
74223;SDS011;62585;49.706;18.216;2023-12-20T10:53:10;7.82;;;4.72;;
74223;SDS011;62585;49.706;18.216;2023-12-20T10:55:38;5.28;;;3.70;;
74223;SDS011;62585;49.706;18.216;2023-12-20T10:58:06;9.85;;;5.60;;
74223;SDS011;62585;49.706;18.216;2023-12-20T11:00:35;8.38;;;5.60;;
74223;SDS011;62585;49.706;18.216;2023-12-20T11:03:06;6.82;;;4.75;;
74223;SDS011;62585;49.706;18.216;2023-12-20T11:05:41;8.20;;;5.30;;
74223;SDS011;62585;49.706;18.216;2023-12-20T11:08:24;6.68;;;3.50;;
74223;SDS011;62585;49.706;18.216;2023-12-20T11:13:36;7.13;;;4.50;;
74223;SDS011;62585;49.706;18.216;2023-12-20T11:16:06;7.63;;;4.57;;
74223;SDS011;62585;49.706;18.216;2023-12-20T11:18:33;8.77;;;5.18;;
74223;SDS011;62585;49.706;18.216;2023-12-20T11:21:02;10.07;;;4.43;;
74223;SDS011;62585;49.706;18.216;2023-12-20T11:23:30;9.30;;;4.90;;
74223;SDS011;62585;49.706;18.216;2023-12-20T11:25:59;9.63;;;6.05;;
74223;SDS011;62585;49.706;18.216;2023-12-20T11:28:27;10.07;;;5.68;;
74223;SDS011;62585;49.706;18.216;2023-12-20T11:30:56;9.73;;;5.38;;
74223;SDS011;62585;49.706;18.216;2023-12-20T11:33:32;8.50;;;4.13;;
74223;SDS011;62585;49.706;18.216;2023-12-20T11:36:02;8.60;;;5.00;;
74223;SDS011;62585;49.706;18.216;2023-12-20T11:38:38;7.47;;;5.80;;
74223;SDS011;62585;49.706;18.216;2023-12-20T11:41:07;11.07;;;6.32;;
74223;SDS011;62585;49.706;18.216;2023-12-20T11:43:36;13.27;;;7.55;;
74223;SDS011;62585;49.706;18.216;2023-12-20T11:46:04;7.78;;;4.53;;
74223;SDS011;62585;49.706;18.216;2023-12-20T11:48:37;12.80;;;6.50;;
74223;SDS011;62585;49.706;18.216;2023-12-20T11:51:11;12.73;;;5.95;;
74223;SDS011;62585;49.706;18.216;2023-12-20T11:53:37;10.52;;;5.72;;
74223;SDS011;62585;49.706;18.216;2023-12-20T11:56:05;11.73;;;6.57;;
74223;SDS011;62585;49.706;18.216;2023-12-20T11:58:32;9.45;;;4.78;;
74223;SDS011;62585;49.706;18.216;2023-12-20T12:00:58;13.02;;;6.95;;
74223;SDS011;62585;49.706;18.216;2023-12-20T12:03:25;9.73;;;5.72;;
74223;SDS011;62585;49.706;18.216;2023-12-20T12:05:51;14.07;;;7.30;;
74223;SDS011;62585;49.706;18.216;2023-12-20T12:08:17;10.13;;;5.85;;
74223;SDS011;62585;49.706;18.216;2023-12-20T12:10:43;7.78;;;4.95;;
74223;SDS011;62585;49.706;18.216;2023-12-20T12:13:10;11.57;;;6.75;;
74223;SDS011;62585;49.706;18.216;2023-12-20T12:15:37;9.38;;;6.57;;
74223;SDS011;62585;49.706;18.216;2023-12-20T12:18:03;12.18;;;5.65;;
74223;SDS011;62585;49.706;18.216;2023-12-20T12:20:30;10.85;;;5.05;;
74223;SDS011;62585;49.706;18.216;2023-12-20T12:25:32;12.98;;;6.40;;
74223;SDS011;62585;49.706;18.216;2023-12-20T12:28:00;8.50;;;5.60;;
74223;SDS011;62585;49.706;18.216;2023-12-20T12:30:27;10.20;;;6.60;;
74223;SDS011;62585;49.706;18.216;2023-12-20T12:32:53;8.55;;;6.10;;
74223;SDS011;62585;49.706;18.216;2023-12-20T12:37:46;11.95;;;6.00;;
74223;SDS011;62585;49.706;18.216;2023-12-20T12:40:14;12.23;;;6.80;;
74223;SDS011;62585;49.706;18.216;2023-12-20T12:42:42;11.40;;;6.57;;
74223;SDS011;62585;49.706;18.216;2023-12-20T12:45:09;6.32;;;4.38;;
74223;SDS011;62585;49.706;18.216;2023-12-20T12:47:39;5.57;;;3.33;;
74223;SDS011;62585;49.706;18.216;2023-12-20T12:50:05;9.30;;;5.10;;
74223;SDS011;62585;49.706;18.216;2023-12-20T12:52:32;11.43;;;6.03;;
74223;SDS011;62585;49.706;18.216;2023-12-20T12:54:58;8.60;;;5.18;;
74223;SDS011;62585;49.706;18.216;2023-12-20T12:57:24;10.18;;;5.75;;
74223;SDS011;62585;49.706;18.216;2023-12-20T12:59:50;6.20;;;4.18;;
74223;SDS011;62585;49.706;18.216;2023-12-20T13:02:16;10.20;;;5.38;;
74223;SDS011;62585;49.706;18.216;2023-12-20T13:04:42;9.30;;;5.55;;
74223;SDS011;62585;49.706;18.216;2023-12-20T13:07:08;5.90;;;4.60;;
74223;SDS011;62585;49.706;18.216;2023-12-20T13:09:38;4.90;;;3.05;;
74223;SDS011;62585;49.706;18.216;2023-12-20T13:12:07;3.80;;;2.53;;
74223;SDS011;62585;49.706;18.216;2023-12-20T13:14:34;5.75;;;3.33;;
74223;SDS011;62585;49.706;18.216;2023-12-20T13:17:02;8.00;;;4.18;;
74223;SDS011;62585;49.706;18.216;2023-12-20T13:19:29;6.72;;;3.53;;
74223;SDS011;62585;49.706;18.216;2023-12-20T13:21:55;8.75;;;4.07;;
74223;SDS011;62585;49.706;18.216;2023-12-20T13:24:22;6.05;;;4.32;;
74223;SDS011;62585;49.706;18.216;2023-12-20T13:26:47;7.70;;;4.82;;
74223;SDS011;62585;49.706;18.216;2023-12-20T13:29:13;6.22;;;4.07;;
74223;SDS011;62585;49.706;18.216;2023-12-20T13:31:39;9.55;;;3.88;;
74223;SDS011;62585;49.706;18.216;2023-12-20T13:34:06;5.68;;;4.00;;
74223;SDS011;62585;49.706;18.216;2023-12-20T13:36:32;7.30;;;5.20;;
74223;SDS011;62585;49.706;18.216;2023-12-20T13:38:58;7.30;;;4.80;;
74223;SDS011;62585;49.706;18.216;2023-12-20T13:41:24;7.03;;;4.07;;
74223;SDS011;62585;49.706;18.216;2023-12-20T13:43:50;9.35;;;4.75;;
74223;SDS011;62585;49.706;18.216;2023-12-20T13:46:16;6.95;;;3.63;;
74223;SDS011;62585;49.706;18.216;2023-12-20T13:48:42;9.50;;;4.72;;
74223;SDS011;62585;49.706;18.216;2023-12-20T13:51:08;7.43;;;4.82;;
74223;SDS011;62585;49.706;18.216;2023-12-20T13:53:36;8.48;;;5.53;;
74223;SDS011;62585;49.706;18.216;2023-12-20T13:56:01;9.70;;;5.30;;
74223;SDS011;62585;49.706;18.216;2023-12-20T13:58:28;10.43;;;5.25;;
74223;SDS011;62585;49.706;18.216;2023-12-20T14:00:53;6.63;;;4.50;;
74223;SDS011;62585;49.706;18.216;2023-12-20T14:03:19;6.25;;;4.05;;
74223;SDS011;62585;49.706;18.216;2023-12-20T14:05:45;10.43;;;5.47;;
74223;SDS011;62585;49.706;18.216;2023-12-20T14:08:11;6.53;;;3.88;;
74223;SDS011;62585;49.706;18.216;2023-12-20T14:10:37;5.60;;;3.83;;
74223;SDS011;62585;49.706;18.216;2023-12-20T14:13:04;5.50;;;3.55;;
74223;SDS011;62585;49.706;18.216;2023-12-20T14:15:31;8.15;;;4.40;;
74223;SDS011;62585;49.706;18.216;2023-12-20T14:18:04;6.38;;;4.97;;
74223;SDS011;62585;49.706;18.216;2023-12-20T14:20:31;7.28;;;4.95;;
74223;SDS011;62585;49.706;18.216;2023-12-20T14:23:00;6.45;;;4.05;;
74223;SDS011;62585;49.706;18.216;2023-12-20T14:25:29;9.68;;;3.95;;
74223;SDS011;62585;49.706;18.216;2023-12-20T14:27:56;7.93;;;4.45;;
74223;SDS011;62585;49.706;18.216;2023-12-20T14:30:21;4.97;;;3.25;;
74223;SDS011;62585;49.706;18.216;2023-12-20T14:32:47;7.30;;;4.15;;
74223;SDS011;62585;49.706;18.216;2023-12-20T14:35:14;8.30;;;4.28;;
74223;SDS011;62585;49.706;18.216;2023-12-20T14:37:40;7.03;;;4.90;;
74223;SDS011;62585;49.706;18.216;2023-12-20T14:40:06;8.43;;;4.43;;